Time;durP1;ratioP1;P1;durP2;ratioP2;P2;SDS_P1;SDS_P2;PMS_P1;PMS_P2;Temp;Humidity;BMP_temperature;BMP_pressure;BME280_temperature;BME280_humidity;BME280_pressure;Samples;Min_cycle;Max_cycle;Signal;HPM_P1;HPM_P2
2023/10/12 00:02:04;;;;;;;6.67;3.87;;;20.10;99.90;;;;;;5086387;28;20462;-79
2023/10/12 00:04:36;;;;;;;9.27;3.97;;;20.10;99.90;;;;;;5088803;28;20430;-80
2023/10/12 00:07:10;;;;;;;8.00;4.13;;;20.10;99.90;;;;;;5092738;28;20484;-79
2023/10/12 00:09:37;;;;;;;12.37;4.30;;;20.10;99.90;;;;;;5084404;28;20554;-77
2023/10/12 00:12:08;;;;;;;8.13;4.13;;;20.10;99.90;;;;;;5077028;28;20501;-79
2023/10/12 00:14:37;;;;;;;8.63;3.97;;;20.00;99.90;;;;;;5083797;28;20489;-79
2023/10/12 00:17:06;;;;;;;6.23;4.10;;;20.10;99.90;;;;;;5089208;28;20503;-79
2023/10/12 00:19:33;;;;;;;8.80;4.17;;;20.00;99.90;;;;;;5088581;28;20450;-77
2023/10/12 00:22:00;;;;;;;6.77;3.67;;;20.00;99.90;;;;;;5089132;28;20469;-80
2023/10/12 00:24:27;;;;;;;8.30;4.10;;;20.00;99.90;;;;;;5077228;28;20450;-79
2023/10/12 00:26:54;;;;;;;7.80;4.20;;;20.00;99.90;;;;;;5084148;28;20467;-78
2023/10/12 00:29:22;;;;;;;9.90;4.73;;;20.00;99.90;;;;;;5088441;28;20819;-79
2023/10/12 00:31:51;;;;;;;9.10;4.50;;;20.00;99.90;;;;;;5083927;28;20490;-80
2023/10/12 00:34:23;;;;;;;8.40;4.33;;;19.90;99.90;;;;;;5091422;28;20519;-79
2023/10/12 00:36:53;;;;;;;6.83;4.40;;;19.90;99.90;;;;;;5084357;28;20449;-80
2023/10/12 00:39:20;;;;;;;11.93;4.93;;;19.90;99.90;;;;;;5076245;28;20463;-80
2023/10/12 00:41:48;;;;;;;9.93;4.60;;;19.80;99.90;;;;;;5077971;28;20482;-80
2023/10/12 00:44:19;;;;;;;9.93;5.20;;;19.80;99.90;;;;;;5096907;28;20468;-80
2023/10/12 00:47:10;;;;;;;7.00;4.53;;;19.80;99.90;;;;;;5090710;28;20508;-80
2023/10/12 00:49:41;;;;;;;10.80;4.53;;;19.80;99.90;;;;;;5089653;28;20454;-78
2023/10/12 00:52:13;;;;;;;9.37;5.10;;;19.70;99.90;;;;;;5078649;28;20502;-80
2023/10/12 00:54:43;;;;;;;9.13;4.80;;;19.60;99.90;;;;;;5085691;28;20497;-80
2023/10/12 00:57:10;;;;;;;7.23;4.70;;;19.60;99.90;;;;;;5084440;28;20494;-80
2023/10/12 00:59:38;;;;;;;9.40;4.40;;;19.60;99.90;;;;;;5081921;28;20500;-80
2023/10/12 01:02:08;;;;;;;10.30;4.80;;;19.40;99.90;;;;;;5083198;28;20914;-80
2023/10/12 01:04:36;;;;;;;9.57;5.37;;;19.50;99.90;;;;;;5088227;28;20459;-80
2023/10/12 01:07:06;;;;;;;13.17;5.30;;;19.30;99.90;;;;;;5086285;28;20458;-79
2023/10/12 01:09:42;;;;;;;7.10;4.27;;;19.30;99.90;;;;;;5075392;28;20447;-80
2023/10/12 01:12:13;;;;;;;7.50;4.70;;;19.40;99.90;;;;;;5083683;28;20497;-80
2023/10/12 01:14:43;;;;;;;9.17;4.20;;;19.30;99.90;;;;;;5077245;28;20463;-81
2023/10/12 01:17:15;;;;;;;6.80;4.53;;;19.30;99.90;;;;;;5084082;28;20477;-80
2023/10/12 01:19:45;;;;;;;10.00;4.37;;;19.30;99.90;;;;;;5076047;28;20478;-80
2023/10/12 01:22:14;;;;;;;5.93;4.47;;;19.20;99.90;;;;;;5083384;28;20470;-81
2023/10/12 01:24:57;;;;;;;13.30;5.00;;;19.20;99.90;;;;;;5081655;28;20446;-80
2023/10/12 01:27:25;;;;;;;5.30;3.90;;;19.20;99.90;;;;;;5075935;28;20447;-78
2023/10/12 01:29:52;;;;;;;9.73;6.13;;;19.20;99.90;;;;;;5079877;28;20455;-79
2023/10/12 01:32:27;;;;;;;12.17;3.70;;;19.20;99.90;;;;;;5076035;28;20517;-80
2023/10/12 01:34:56;;;;;;;8.07;4.53;;;19.30;99.90;;;;;;5074671;28;20458;-81
2023/10/12 01:37:26;;;;;;;7.23;4.17;;;19.20;99.90;;;;;;5085917;28;20533;-80
2023/10/12 01:39:58;;;;;;;7.77;4.60;;;19.20;99.90;;;;;;5086345;28;20549;-79
2023/10/12 01:42:42;;;;;;;510.10;70.80;;;19.20;99.90;;;;;;5094695;28;20489;-80
2023/10/12 01:45:18;;;;;;;7.53;5.07;;;19.20;99.90;;;;;;5083007;28;20552;-80
2023/10/12 01:47:46;;;;;;;8.80;4.13;;;19.10;99.90;;;;;;5093989;28;20454;-78
2023/10/12 01:50:16;;;;;;;10.70;5.60;;;19.10;99.90;;;;;;5097691;28;20457;-79
2023/10/12 01:52:46;;;;;;;6.70;4.90;;;19.00;99.90;;;;;;5081720;28;20529;-78
2023/10/12 01:55:18;;;;;;;9.00;5.47;;;18.90;99.90;;;;;;5076625;28;20526;-80
2023/10/12 01:57:52;;;;;;;9.57;5.50;;;18.90;99.90;;;;;;5075529;28;20504;-78
2023/10/12 02:00:24;;;;;;;38.47;12.23;;;18.80;99.90;;;;;;5087216;28;21108;-80
2023/10/12 02:03:00;;;;;;;9.53;6.50;;;18.70;99.90;;;;;;5081979;28;20809;-78
2023/10/12 02:05:29;;;;;;;9.40;4.87;;;18.70;99.90;;;;;;5079347;28;20445;-80
2023/10/12 02:07:58;;;;;;;11.03;5.93;;;18.70;99.90;;;;;;5078666;28;20496;-79
2023/10/12 02:10:32;;;;;;;10.83;6.00;;;18.60;99.90;;;;;;5074420;28;20540;-80
2023/10/12 02:13:00;;;;;;;10.70;6.20;;;18.50;99.90;;;;;;5084644;28;20478;-80
2023/10/12 02:15:31;;;;;;;9.57;6.10;;;18.30;99.90;;;;;;5083676;28;20493;-79
2023/10/12 02:17:59;;;;;;;7.70;5.43;;;18.30;99.90;;;;;;5084344;28;20556;-79
2023/10/12 02:20:32;;;;;;;12.27;6.73;;;18.20;99.90;;;;;;5078302;28;20496;-79
2023/10/12 02:23:03;;;;;;;12.53;7.47;;;18.10;99.90;;;;;;5085101;28;20448;-79
2023/10/12 02:25:32;;;;;;;10.80;8.20;;;18.10;99.90;;;;;;5073385;28;20457;-80
2023/10/12 02:27:59;;;;;;;14.33;9.03;;;17.90;99.90;;;;;;5073735;28;20465;-80
2023/10/12 02:30:28;;;;;;;12.37;9.67;;;17.80;99.90;;;;;;5081264;28;20940;-79
2023/10/12 02:33:00;;;;;;;13.77;9.87;;;17.80;99.90;;;;;;5082228;28;20866;-80
2023/10/12 02:35:36;;;;;;;16.50;9.70;;;17.80;99.90;;;;;;5074124;28;20485;-80
2023/10/12 02:38:06;;;;;;;16.77;10.67;;;17.60;99.90;;;;;;5073562;28;20468;-81
2023/10/12 02:40:33;;;;;;;14.90;11.33;;;17.60;99.90;;;;;;5073704;28;20447;-81
2023/10/12 02:43:00;;;;;;;18.50;12.57;;;17.60;99.90;;;;;;5074212;28;20507;-79
2023/10/12 02:45:29;;;;;;;21.63;12.30;;;17.50;99.90;;;;;;5073727;28;20457;-80
2023/10/12 02:47:58;;;;;;;20.07;13.20;;;17.40;99.90;;;;;;5072824;28;20472;-79
2023/10/12 02:50:29;;;;;;;17.13;12.57;;;17.30;99.90;;;;;;5085624;28;20570;-81
2023/10/12 02:52:56;;;;;;;19.87;13.23;;;17.30;99.90;;;;;;5094114;28;20999;-79
2023/10/12 02:55:34;;;;;;;18.40;12.67;;;17.20;99.90;;;;;;5094142;28;20442;-80
2023/10/12 02:58:06;;;;;;;16.60;10.63;;;17.20;99.90;;;;;;5073587;28;20952;-80
2023/10/12 03:00:36;;;;;;;16.73;12.73;;;17.10;99.90;;;;;;5073713;28;20469;-80
2023/10/12 03:03:21;;;;;;;14.37;12.50;;;17.10;99.90;;;;;;5073324;28;20966;-78
2023/10/12 03:05:48;;;;;;;13.73;11.30;;;17.00;99.90;;;;;;5073639;28;20449;-79
2023/10/12 03:08:16;;;;;;;15.50;12.43;;;17.10;99.90;;;;;;5084582;28;21183;-79
2023/10/12 03:13:34;;;;;;;17.73;13.00;;;17.00;99.90;;;;;;5093039;28;20906;-78
2023/10/12 03:16:13;;;;;;;20.03;13.87;;;17.10;99.90;;;;;;5085905;28;20467;-81
2023/10/12 03:18:40;;;;;;;18.60;13.03;;;17.10;99.90;;;;;;5086121;28;20895;-79
2023/10/12 03:21:12;;;;;;;18.50;12.10;;;17.10;99.90;;;;;;5092512;28;20468;-78
2023/10/12 03:23:40;;;;;;;13.90;11.60;;;17.10;99.90;;;;;;5093061;28;20517;-79
2023/10/12 03:26:19;;;;;;;17.43;12.10;;;17.10;99.90;;;;;;5090930;28;20462;-77
2023/10/12 03:28:46;;;;;;;16.83;11.30;;;17.10;99.90;;;;;;5074659;28;20455;-80
2023/10/12 03:31:21;;;;;;;13.87;10.87;;;17.00;99.90;;;;;;5091206;28;20479;-79
2023/10/12 03:33:53;;;;;;;14.30;10.30;;;17.10;99.90;;;;;;5094808;28;20496;-77
2023/10/12 03:36:23;;;;;;;14.00;10.17;;;17.00;99.90;;;;;;5093578;28;20460;-77
2023/10/12 03:39:07;;;;;;;13.73;9.70;;;16.90;99.90;;;;;;5075975;28;20450;-78
2023/10/12 03:41:55;;;;;;;16.37;10.17;;;16.90;99.90;;;;;;5076310;28;21008;-77
2023/10/12 03:44:34;;;;;;;15.83;10.13;;;16.90;99.90;;;;;;5076089;28;20450;-76
2023/10/12 03:47:04;;;;;;;13.30;10.10;;;16.90;99.90;;;;;;5093210;28;20458;-77
2023/10/12 03:49:39;;;;;;;18.70;10.90;;;16.90;99.90;;;;;;5095854;28;20456;-77
2023/10/12 03:52:14;;;;;;;13.83;10.37;;;16.80;99.90;;;;;;5096282;28;20502;-81
2023/10/12 03:54:55;;;;;;;13.60;9.70;;;16.90;99.90;;;;;;5095786;28;20513;-79
2023/10/12 03:57:30;;;;;;;17.17;11.47;;;16.90;99.90;;;;;;5078716;28;20456;-80
2023/10/12 04:00:25;;;;;;;15.40;11.93;;;17.00;99.90;;;;;;5086168;28;20456;-78
2023/10/12 04:02:56;;;;;;;15.07;10.73;;;16.90;99.90;;;;;;5081766;28;20469;-80
2023/10/12 04:05:35;;;;;;;12.50;9.90;;;16.80;99.90;;;;;;5079290;28;20441;-78
2023/10/12 04:08:18;;;;;;;13.50;11.00;;;16.90;99.90;;;;;;5077919;28;20942;-79
2023/10/12 04:16:09;;;;;;;12.00;9.57;;;16.80;99.90;;;;;;5075034;28;20443;-78
2023/10/12 04:18:41;;;;;;;14.57;11.87;;;16.70;99.90;;;;;;5075408;28;20459;-82
2023/10/12 04:21:09;;;;;;;14.23;11.33;;;16.70;99.90;;;;;;5077841;28;20463;-81
2023/10/12 04:23:45;;;;;;;12.33;10.00;;;16.70;99.90;;;;;;5076425;28;20543;-81
2023/10/12 04:26:37;;;;;;;14.30;9.40;;;16.80;99.90;;;;;;5079640;28;20478;-80
2023/10/12 04:29:09;;;;;;;13.37;10.33;;;16.70;99.90;;;;;;5083881;28;20915;-83
2023/10/12 04:31:49;;;;;;;13.70;9.87;;;16.80;99.90;;;;;;5083368;28;20476;-82
2023/10/12 04:34:20;;;;;;;14.00;9.50;;;16.80;99.90;;;;;;5085238;28;20471;-83
2023/10/12 04:36:48;;;;;;;14.83;9.80;;;16.80;99.90;;;;;;5091673;28;20468;-80
2023/10/12 04:39:24;;;;;;;14.80;9.63;;;16.70;99.90;;;;;;5075473;28;20468;-80
2023/10/12 04:42:11;;;;;;;13.97;9.20;;;16.60;99.90;;;;;;5075972;28;20504;-81
2023/10/12 04:44:45;;;;;;;13.57;9.30;;;16.70;99.90;;;;;;5074340;28;20444;-82
2023/10/12 04:47:14;;;;;;;14.50;9.77;;;16.70;99.90;;;;;;5085109;28;20457;-81
2023/10/12 04:49:55;;;;;;;15.90;10.20;;;16.70;99.90;;;;;;5094764;28;20446;-81
2023/10/12 04:52:33;;;;;;;13.37;9.40;;;16.70;99.90;;;;;;5093770;28;20500;-81
2023/10/12 04:55:06;;;;;;;14.43;11.13;;;16.70;99.90;;;;;;5090756;28;20441;-82
2023/10/12 04:57:37;;;;;;;12.27;9.30;;;16.70;99.90;;;;;;5084294;28;20455;-80
2023/10/12 05:00:24;;;;;;;19.13;10.50;;;16.70;99.90;;;;;;5082817;28;20555;-81
2023/10/12 05:02:56;;;;;;;15.80;9.53;;;16.70;99.90;;;;;;5081474;28;20917;-79
2023/10/12 05:08:09;;;;;;;11.77;9.70;;;16.70;99.90;;;;;;5078758;28;20529;-81
2023/10/12 05:10:46;;;;;;;13.13;9.77;;;16.60;99.90;;;;;;5081791;28;20457;-79
2023/10/12 05:13:19;;;;;;;15.83;10.93;;;16.50;99.90;;;;;;5087396;28;21093;-80
2023/10/12 05:15:54;;;;;;;13.77;10.10;;;16.60;99.90;;;;;;5074681;28;20842;-82
2023/10/12 05:18:22;;;;;;;20.67;12.40;;;16.50;99.90;;;;;;5072885;28;20476;-81
2023/10/12 05:20:49;;;;;;;19.87;11.67;;;16.50;99.90;;;;;;5074381;28;20562;-82
2023/10/12 05:23:16;;;;;;;15.47;11.00;;;16.40;99.90;;;;;;5074324;28;20458;-80
2023/10/12 05:25:53;;;;;;;15.07;9.67;;;16.30;99.90;;;;;;5074663;28;20456;-80
2023/10/12 05:28:21;;;;;;;13.60;9.83;;;16.20;99.90;;;;;;5073668;28;20548;-81
2023/10/12 05:30:50;;;;;;;18.43;11.03;;;16.20;99.90;;;;;;5075152;28;20457;-82
2023/10/12 05:33:38;;;;;;;12.90;10.57;;;16.20;99.90;;;;;;5075428;28;20480;-79
2023/10/12 05:36:08;;;;;;;13.97;10.47;;;16.20;99.90;;;;;;5074028;28;20508;-81
2023/10/12 05:38:36;;;;;;;14.33;9.47;;;16.10;99.90;;;;;;5073168;28;20448;-80
2023/10/12 05:41:04;;;;;;;15.93;9.70;;;16.10;99.90;;;;;;5074421;28;20473;-81
2023/10/12 05:43:33;;;;;;;15.93;10.30;;;16.20;99.90;;;;;;5080404;28;20450;-80
2023/10/12 05:46:04;;;;;;;17.07;9.50;;;16.10;99.90;;;;;;5074784;28;20459;-79
2023/10/12 05:48:34;;;;;;;11.90;10.67;;;16.10;99.90;;;;;;5093636;28;20942;-79
2023/10/12 05:51:03;;;;;;;16.20;10.07;;;16.10;99.90;;;;;;5094170;28;20486;-78
2023/10/12 05:53:32;;;;;;;15.57;8.93;;;16.20;99.90;;;;;;5094870;28;20493;-79
2023/10/12 05:56:00;;;;;;;12.00;9.27;;;16.20;99.90;;;;;;5095308;28;20840;-77
2023/10/12 05:58:26;;;;;;;17.87;11.20;;;16.20;99.90;;;;;;5086932;28;20829;-78
2023/10/12 06:00:54;;;;;;;10.97;8.73;;;16.10;99.90;;;;;;5087813;28;21025;-78
2023/10/12 06:03:22;;;;;;;14.90;9.90;;;16.20;99.90;;;;;;5075096;28;20948;-78
2023/10/12 06:05:50;;;;;;;16.90;10.60;;;16.20;99.90;;;;;;5074583;28;20492;-79
2023/10/12 06:08:18;;;;;;;13.40;8.80;;;16.10;99.90;;;;;;5074248;28;21003;-79
2023/10/12 06:10:45;;;;;;;17.30;9.33;;;16.10;99.90;;;;;;5075173;28;20455;-78
2023/10/12 06:13:13;;;;;;;14.53;10.77;;;16.20;99.90;;;;;;5075143;28;20495;-78
2023/10/12 06:15:42;;;;;;;10.93;8.07;;;16.10;99.90;;;;;;5074923;28;20529;-80
2023/10/12 06:18:12;;;;;;;11.50;8.67;;;16.10;99.90;;;;;;5073831;28;20516;-80
2023/10/12 06:20:42;;;;;;;13.77;8.40;;;16.20;99.90;;;;;;5074233;28;20505;-78
2023/10/12 06:23:14;;;;;;;11.07;8.53;;;16.20;99.90;;;;;;5074203;28;20902;-79
2023/10/12 06:25:43;;;;;;;9.27;8.07;;;16.30;99.90;;;;;;5075452;28;20459;-79
2023/10/12 06:28:16;;;;;;;16.60;9.40;;;16.20;99.90;;;;;;5072981;28;20461;-78
2023/10/12 06:30:44;;;;;;;13.87;9.70;;;16.20;99.90;;;;;;5073584;28;20461;-79
2023/10/12 06:33:14;;;;;;;13.80;9.43;;;16.30;99.90;;;;;;5073325;28;20486;-78
2023/10/12 06:35:58;;;;;;;13.70;9.20;;;16.30;99.90;;;;;;5073739;28;20467;-80
2023/10/12 06:38:36;;;;;;;11.93;8.43;;;16.30;99.90;;;;;;5072439;28;20454;-79
2023/10/12 06:41:29;;;;;;;18.23;10.00;;;16.30;99.90;;;;;;5073757;28;20561;-77
2023/10/12 06:44:22;;;;;;;12.60;9.53;;;16.30;99.90;;;;;;5086394;28;21035;-78
2023/10/12 06:46:49;;;;;;;13.33;9.23;;;16.30;99.90;;;;;;5080960;28;20453;-78
2023/10/12 06:49:18;;;;;;;13.80;9.70;;;16.30;99.90;;;;;;5078380;28;20449;-79
2023/10/12 06:51:53;;;;;;;11.00;8.93;;;16.20;99.90;;;;;;5081271;28;20470;-80
2023/10/12 06:54:31;;;;;;;14.93;9.33;;;16.20;99.90;;;;;;5073839;28;20479;-78
2023/10/12 06:57:29;;;;;;;16.20;8.90;;;16.30;99.90;;;;;;5060337;28;20833;-80
2023/10/12 06:59:54;;;;;;;16.93;9.47;;;16.20;99.90;;;;;;5081873;28;20457;-78
2023/10/12 07:02:24;;;;;;;11.53;8.43;;;16.30;99.90;;;;;;5078647;28;20482;-78
2023/10/12 07:04:54;;;;;;;13.27;9.40;;;16.20;99.90;;;;;;5085003;28;20567;-78
2023/10/12 07:07:27;;;;;;;13.43;8.80;;;16.30;99.90;;;;;;5080250;28;20458;-77
2023/10/12 07:10:11;;;;;;;14.73;9.10;;;16.20;99.90;;;;;;5080599;28;20451;-80
2023/10/12 07:12:43;;;;;;;14.80;8.83;;;16.20;99.90;;;;;;5072897;28;20470;-78
2023/10/12 07:15:12;;;;;;;18.73;10.37;;;16.20;99.90;;;;;;5071556;28;20512;-78
2023/10/12 07:17:48;;;;;;;10.50;9.07;;;16.30;99.90;;;;;;5076460;28;21001;-79
2023/10/12 07:20:27;;;;;;;11.53;8.93;;;16.20;99.90;;;;;;5078450;28;20460;-79
2023/10/12 07:22:56;;;;;;;11.53;8.10;;;16.30;99.90;;;;;;5076353;28;20451;-79
2023/10/12 07:25:26;;;;;;;9.93;7.27;;;16.30;99.90;;;;;;5075167;28;20477;-81
2023/10/12 07:27:58;;;;;;;13.13;7.50;;;16.30;99.90;;;;;;5075846;28;20542;-79
2023/10/12 07:30:33;;;;;;;12.87;8.10;;;16.40;99.90;;;;;;5075859;28;20541;-79
2023/10/12 07:33:04;;;;;;;12.17;7.90;;;16.40;99.90;;;;;;5078429;28;20442;-79
2023/10/12 07:35:35;;;;;;;10.73;8.13;;;16.30;99.90;;;;;;5083635;28;20466;-80
2023/10/12 07:38:05;;;;;;;11.13;8.63;;;16.40;99.90;;;;;;5074132;28;20445;-78
2023/10/12 07:40:37;;;;;;;16.57;7.37;;;16.40;99.90;;;;;;5075178;28;20493;-81
2023/10/12 07:43:10;;;;;;;10.93;7.40;;;16.40;99.90;;;;;;5078553;28;20450;-79
2023/10/12 07:45:47;;;;;;;10.00;7.03;;;16.40;99.90;;;;;;5072565;28;20456;-79
2023/10/12 07:48:29;;;;;;;12.90;6.40;;;16.50;99.90;;;;;;5077710;28;20582;-80
2023/10/12 07:51:15;;;;;;;10.83;6.50;;;16.50;99.90;;;;;;5080450;28;20478;-79
2023/10/12 07:53:49;;;;;;;10.17;7.40;;;16.70;99.90;;;;;;5078980;28;20479;-81
2023/10/12 07:56:16;;;;;;;14.43;8.47;;;16.60;99.90;;;;;;5077079;28;20448;-81
2023/10/12 07:58:44;;;;;;;13.07;8.00;;;16.60;99.90;;;;;;5080403;28;20454;-81
2023/10/12 08:01:39;;;;;;;10.03;7.00;;;16.70;99.90;;;;;;5077184;28;20507;-81
2023/10/12 08:04:19;;;;;;;13.50;7.57;;;16.70;99.90;;;;;;5078734;28;20441;-81
2023/10/12 08:06:46;;;;;;;12.90;7.93;;;16.70;99.90;;;;;;5078900;28;20443;-79
2023/10/12 08:09:34;;;;;;;14.63;9.10;;;16.80;99.90;;;;;;5079237;28;20448;-81
2023/10/12 08:12:23;;;;;;;14.10;7.90;;;16.70;99.90;;;;;;5080334;28;20471;-82
2023/10/12 08:14:53;;;;;;;14.40;8.03;;;16.80;99.90;;;;;;5081756;28;20522;-80
2023/10/12 08:17:32;;;;;;;17.90;8.90;;;16.80;99.90;;;;;;5079608;28;20447;-80
2023/10/12 08:22:50;;;;;;;10.40;6.60;;;16.90;99.90;;;;;;5081338;28;20521;-81
2023/10/12 08:25:27;;;;;;;11.50;7.23;;;16.90;99.90;;;;;;5081042;28;20447;-79
2023/10/12 08:28:05;;;;;;;13.70;9.37;;;16.90;99.90;;;;;;5082119;28;20456;-80
2023/10/12 08:30:48;;;;;;;10.63;7.83;;;16.80;99.90;;;;;;5089301;28;20457;-81
2023/10/12 08:33:48;;;;;;;11.33;7.03;;;16.80;99.90;;;;;;5097552;28;21004;-81
2023/10/12 08:38:53;;;;;;;15.33;8.60;;;16.90;99.90;;;;;;5074886;28;20830;-80
2023/10/12 08:41:21;;;;;;;12.17;7.80;;;16.90;99.90;;;;;;5076742;28;20522;-79
2023/10/12 08:43:52;;;;;;;12.17;7.80;;;16.90;99.90;;;;;;5077462;28;20505;-80
2023/10/12 08:46:51;;;;;;;8.10;7.20;;;17.00;99.90;;;;;;5076732;28;20470;-82
2023/10/12 08:49:43;;;;;;;14.57;8.80;;;17.10;99.90;;;;;;5087202;28;20448;-81
2023/10/12 08:52:19;;;;;;;8.73;7.70;;;17.10;99.90;;;;;;5087112;28;20482;-82
2023/10/12 08:54:51;;;;;;;11.43;8.13;;;17.20;99.90;;;;;;5096780;28;20478;-81
2023/10/12 08:57:32;;;;;;;15.57;8.40;;;17.20;99.90;;;;;;5079861;28;20912;-81
2023/10/12 09:02:49;;;;;;;8.00;7.00;;;17.30;99.90;;;;;;5089614;28;20465;-81
2023/10/12 09:05:24;;;;;;;11.70;7.73;;;17.30;99.90;;;;;;5090733;28;20473;-81
2023/10/12 09:08:05;;;;;;;9.40;7.43;;;17.40;99.90;;;;;;5086463;28;20454;-81
2023/10/12 09:10:36;;;;;;;13.27;8.00;;;17.40;99.90;;;;;;5079333;28;20963;-80
2023/10/12 09:13:06;;;;;;;13.23;8.33;;;17.30;99.90;;;;;;5077805;28;20460;-80
2023/10/12 09:15:45;;;;;;;11.40;6.13;;;17.30;99.90;;;;;;5077658;28;20585;-82
2023/10/12 09:18:12;;;;;;;11.87;7.43;;;17.30;99.90;;;;;;5087801;28;20475;-81
2023/10/12 09:20:46;;;;;;;8.93;6.83;;;17.20;99.90;;;;;;5096613;28;20452;-82
2023/10/12 09:23:15;;;;;;;11.07;6.77;;;17.20;99.90;;;;;;5092360;28;20452;-79
2023/10/12 09:28:36;;;;;;;14.37;6.80;;;17.20;99.90;;;;;;5061196;28;20440;-80
2023/10/12 09:31:09;;;;;;;10.70;6.73;;;17.30;99.90;;;;;;5090196;28;20533;-79
2023/10/12 09:33:45;;;;;;;9.50;6.93;;;17.30;99.90;;;;;;5080559;28;20490;-81
2023/10/12 09:36:11;;;;;;;17.63;7.93;;;17.30;99.90;;;;;;5095664;28;20453;-80
2023/10/12 09:38:39;;;;;;;9.47;7.20;;;17.30;99.90;;;;;;5080074;28;20469;-79
2023/10/12 09:41:09;;;;;;;12.10;7.73;;;17.40;99.90;;;;;;5075865;28;20481;-80
2023/10/12 09:43:38;;;;;;;14.27;8.03;;;17.40;99.90;;;;;;5076107;28;20544;-80
2023/10/12 09:46:09;;;;;;;13.23;6.93;;;17.50;99.90;;;;;;5091321;28;20520;-81
2023/10/12 09:48:39;;;;;;;9.90;7.67;;;17.60;99.90;;;;;;5078505;28;20464;-80
2023/10/12 09:51:15;;;;;;;10.07;7.70;;;17.70;99.90;;;;;;5083900;28;20460;-79
2023/10/12 09:53:45;;;;;;;8.17;6.50;;;17.70;99.90;;;;;;5080254;28;20537;-79
2023/10/12 09:56:16;;;;;;;10.43;7.37;;;17.80;99.90;;;;;;5088176;28;20457;-80
2023/10/12 09:58:51;;;;;;;12.83;7.60;;;17.90;99.90;;;;;;5085298;28;20450;-80
2023/10/12 10:01:24;;;;;;;11.13;6.60;;;17.90;99.90;;;;;;5082861;28;20513;-79
2023/10/12 10:03:52;;;;;;;7.90;5.57;;;17.90;99.90;;;;;;5087506;28;20441;-80
2023/10/12 10:06:37;;;;;;;10.17;6.40;;;18.00;99.90;;;;;;5086024;28;20977;-79
2023/10/12 10:11:57;;;;;;;12.37;7.93;;;18.00;99.90;;;;;;5080030;28;20465;-80
2023/10/12 10:14:29;;;;;;;15.73;7.70;;;18.00;99.90;;;;;;5083940;28;20486;-80
2023/10/12 10:16:59;;;;;;;11.90;6.87;;;18.00;99.90;;;;;;5076315;28;20461;-80
2023/10/12 10:19:29;;;;;;;11.80;6.10;;;18.00;99.90;;;;;;5083713;28;20463;-80
2023/10/12 10:22:11;;;;;;;9.43;5.70;;;17.90;99.90;;;;;;5088488;28;20509;-79
2023/10/12 10:24:50;;;;;;;9.77;5.67;;;17.90;99.90;;;;;;5075129;28;20453;-80
2023/10/12 10:27:18;;;;;;;9.73;7.10;;;18.00;99.90;;;;;;5074688;28;20552;-81
2023/10/12 10:29:53;;;;;;;8.77;6.30;;;18.10;99.90;;;;;;5086875;28;20465;-81
2023/10/12 10:32:24;;;;;;;8.77;6.63;;;18.00;99.90;;;;;;5082337;28;20500;-79
2023/10/12 10:34:56;;;;;;;17.03;6.50;;;18.00;99.90;;;;;;5074672;28;20911;-80
2023/10/12 10:37:47;;;;;;;11.50;6.40;;;18.00;99.90;;;;;;5073005;28;20458;-80
2023/10/12 10:40:17;;;;;;;12.53;7.20;;;18.10;99.90;;;;;;5074585;28;20447;-79
2023/10/12 10:42:57;;;;;;;10.77;6.13;;;18.20;99.90;;;;;;5074979;28;20479;-80
2023/10/12 10:45:27;;;;;;;13.00;7.07;;;18.30;99.90;;;;;;5074298;28;20468;-80
2023/10/12 10:47:56;;;;;;;7.27;5.80;;;18.20;99.90;;;;;;5075204;28;20462;-79
2023/10/12 10:50:24;;;;;;;11.20;6.40;;;18.30;99.90;;;;;;5074960;28;20485;-79
2023/10/12 10:52:59;;;;;;;17.63;6.77;;;18.30;99.90;;;;;;5074772;28;21013;-79
2023/10/12 10:55:31;;;;;;;10.90;5.93;;;18.40;99.90;;;;;;5075135;28;20497;-80
2023/10/12 10:58:00;;;;;;;9.23;6.33;;;18.40;99.90;;;;;;5072779;28;20450;-77
2023/10/12 11:00:36;;;;;;;9.50;6.73;;;18.40;99.90;;;;;;5085343;28;20845;-80
2023/10/12 11:03:05;;;;;;;9.37;6.27;;;18.30;99.90;;;;;;5076809;28;20519;-81
2023/10/12 11:05:31;;;;;;;10.67;5.80;;;18.40;99.90;;;;;;5084554;28;20448;-81
2023/10/12 11:08:18;;;;;;;13.77;5.70;;;18.40;99.90;;;;;;5085054;28;20454;-79
2023/10/12 11:13:26;;;;;;;10.20;7.17;;;18.40;99.90;;;;;;5083111;28;20472;-80
2023/10/12 11:15:55;;;;;;;9.03;6.37;;;18.50;99.90;;;;;;5078600;28;20487;-79
2023/10/12 11:18:24;;;;;;;14.73;7.23;;;18.50;99.90;;;;;;5077661;28;20462;-79
2023/10/12 11:20:57;;;;;;;10.93;6.37;;;18.60;99.90;;;;;;5095994;28;20477;-80
2023/10/12 11:23:24;;;;;;;11.03;5.90;;;18.40;99.90;;;;;;5081106;28;20494;-80
2023/10/12 11:25:55;;;;;;;10.07;6.57;;;18.40;99.90;;;;;;5073553;28;20518;-81
2023/10/12 11:28:23;;;;;;;9.67;6.50;;;18.40;99.90;;;;;;5080309;28;20973;-79
2023/10/12 11:30:51;;;;;;;12.30;6.97;;;18.40;99.90;;;;;;5081294;28;20462;-81
2023/10/12 11:33:28;;;;;;;9.93;6.70;;;18.40;99.90;;;;;;5092790;28;20545;-81
2023/10/12 11:36:00;;;;;;;10.07;6.30;;;18.40;99.90;;;;;;5088983;28;20481;-81
2023/10/12 11:38:28;;;;;;;11.90;6.50;;;18.40;99.90;;;;;;5076728;28;20456;-81
2023/10/12 11:40:55;;;;;;;10.60;6.70;;;18.30;99.90;;;;;;5073393;28;20907;-81
2023/10/12 11:43:29;;;;;;;10.00;6.70;;;18.30;99.90;;;;;;5077340;28;20451;-81
2023/10/12 11:46:01;;;;;;;9.40;6.30;;;18.30;99.90;;;;;;5075302;28;20454;-79
2023/10/12 11:48:30;;;;;;;12.03;7.30;;;18.30;99.90;;;;;;5081749;28;20457;-81
2023/10/12 11:50:57;;;;;;;10.43;7.87;;;18.30;99.90;;;;;;5086786;28;20530;-80
2023/10/12 11:53:25;;;;;;;16.10;7.20;;;18.30;99.90;;;;;;5081107;28;20450;-80
2023/10/12 11:56:04;;;;;;;9.30;7.03;;;18.40;99.90;;;;;;5080046;28;20491;-79
2023/10/12 11:58:32;;;;;;;11.50;6.80;;;18.40;99.90;;;;;;5082401;28;20442;-81
2023/10/12 12:01:00;;;;;;;13.13;8.73;;;18.40;99.90;;;;;;5083580;28;20494;-79
2023/10/12 12:03:29;;;;;;;13.00;6.47;;;18.40;99.90;;;;;;5079207;28;20455;-79
2023/10/12 12:05:56;;;;;;;10.70;7.00;;;18.40;99.90;;;;;;5079007;28;20446;-80
2023/10/12 12:08:25;;;;;;;12.90;7.47;;;18.40;99.90;;;;;;5077932;28;20447;-81
2023/10/12 12:10:56;;;;;;;11.50;7.40;;;18.40;99.90;;;;;;5093224;28;20879;-82
2023/10/12 12:13:23;;;;;;;10.90;7.00;;;18.40;99.90;;;;;;5098581;28;20474;-81
2023/10/12 12:15:55;;;;;;;11.83;7.80;;;18.40;99.90;;;;;;5097451;28;20492;-80
2023/10/12 12:18:22;;;;;;;10.30;8.20;;;18.30;99.90;;;;;;5088096;28;20451;-79
2023/10/12 12:20:53;;;;;;;13.27;7.27;;;18.40;99.90;;;;;;5086445;28;20453;-81
2023/10/12 12:23:26;;;;;;;12.97;7.53;;;18.40;99.90;;;;;;5078076;28;20482;-80
2023/10/12 12:25:59;;;;;;;13.23;7.03;;;18.40;99.90;;;;;;5081954;28;20538;-81
2023/10/12 12:28:32;;;;;;;11.20;7.87;;;18.40;99.90;;;;;;5080463;28;20510;-81
2023/10/12 12:31:00;;;;;;;11.57;7.47;;;18.40;99.90;;;;;;5078186;28;20478;-80
2023/10/12 12:33:27;;;;;;;10.97;8.87;;;18.40;99.90;;;;;;5077908;28;20939;-81
2023/10/12 12:35:59;;;;;;;9.80;7.47;;;18.30;99.90;;;;;;5080043;28;20489;-82
2023/10/12 12:38:43;;;;;;;13.90;8.23;;;18.30;99.90;;;;;;5082774;28;20820;-81
2023/10/12 12:41:18;;;;;;;10.77;8.17;;;18.40;99.90;;;;;;5088897;28;20553;-79
2023/10/12 12:43:45;;;;;;;15.17;9.27;;;18.40;99.90;;;;;;5079466;28;20872;-81
2023/10/12 12:46:12;;;;;;;10.57;8.47;;;18.30;99.90;;;;;;5084445;28;20434;-81
2023/10/12 12:48:39;;;;;;;14.07;9.67;;;18.30;99.90;;;;;;5085312;28;20573;-80
2023/10/12 12:51:11;;;;;;;12.33;8.47;;;18.40;99.90;;;;;;5077839;28;20473;-80
2023/10/12 12:53:38;;;;;;;11.97;9.70;;;18.40;99.90;;;;;;5083250;28;20933;-79
2023/10/12 12:56:10;;;;;;;13.80;8.63;;;18.50;99.90;;;;;;5090131;28;20487;-81
2023/10/12 12:58:37;;;;;;;15.20;9.90;;;18.50;99.90;;;;;;5089815;28;20497;-80
2023/10/12 13:01:04;;;;;;;11.07;9.20;;;18.60;99.90;;;;;;5089291;28;20474;-80
2023/10/12 13:03:32;;;;;;;15.27;8.87;;;18.70;99.90;;;;;;5095357;28;20453;-79
2023/10/12 13:05:58;;;;;;;13.20;10.00;;;18.70;99.90;;;;;;5084606;28;20458;-81
2023/10/12 13:08:27;;;;;;;16.57;10.20;;;18.80;99.90;;;;;;5078647;28;20506;-79
2023/10/12 13:10:57;;;;;;;13.33;9.20;;;18.80;99.90;;;;;;5078896;28;20505;-79
2023/10/12 13:13:23;;;;;;;12.37;9.80;;;18.80;99.90;;;;;;5082571;28;20525;-79
2023/10/12 13:15:50;;;;;;;16.53;9.93;;;18.80;99.90;;;;;;5081873;28;20516;-79
2023/10/12 13:18:17;;;;;;;17.17;11.93;;;18.80;99.90;;;;;;5081911;28;20451;-79
2023/10/12 13:20:46;;;;;;;14.47;9.93;;;18.80;99.90;;;;;;5085946;28;20481;-80
2023/10/12 13:23:14;;;;;;;12.40;9.43;;;18.80;99.90;;;;;;5095129;28;20454;-79
2023/10/12 13:25:42;;;;;;;16.20;10.90;;;18.80;99.90;;;;;;5091138;28;20451;-80
2023/10/12 13:28:10;;;;;;;18.30;12.47;;;18.80;99.90;;;;;;5087121;28;20538;-80
2023/10/12 13:30:36;;;;;;;14.27;11.33;;;18.80;99.90;;;;;;5088782;28;20828;-80
2023/10/12 13:33:05;;;;;;;13.57;10.17;;;18.70;99.90;;;;;;5088774;28;20973;-79